createdAt,value
2019-05-07T00:01:23.284Z,7.62
2019-05-07T00:03:53.654Z,7.55
2019-05-07T00:06:24.558Z,7.62
2019-05-07T00:08:54.999Z,7.56
2019-05-07T00:11:25.897Z,7.55
2019-05-07T00:13:56.836Z,7.44
2019-05-07T00:16:27.611Z,7.41
2019-05-07T00:18:58.866Z,7.32
2019-05-07T00:21:29.658Z,7.34
2019-05-07T00:24:02.256Z,7.21
2019-05-07T00:26:34.105Z,7.25
2019-05-07T00:29:04.879Z,7.25
2019-05-07T00:31:35.319Z,7.30
2019-05-07T00:34:06.106Z,7.29
2019-05-07T00:36:48.316Z,7.22
2019-05-07T00:39:36.404Z,7.21
2019-05-07T00:42:22.062Z,7.09
2019-05-07T00:44:57.520Z,7.09
2019-05-07T00:47:28.398Z,7.13
2019-05-07T00:50:03.299Z,7.12
2019-05-07T00:52:33.842Z,7.04
2019-05-07T00:55:04.548Z,7.02
2019-05-07T00:57:34.973Z,6.99
2019-05-07T01:00:06.085Z,7.03
2019-05-07T01:02:36.506Z,6.94
2019-05-07T01:05:07.484Z,6.96
2019-05-07T01:07:37.961Z,6.83
2019-05-07T01:10:09.669Z,6.90
2019-05-07T01:12:42.191Z,6.90
2019-05-07T01:15:12.952Z,6.90
2019-05-07T01:17:43.433Z,6.81
2019-05-07T01:20:13.866Z,6.74
2019-05-07T01:22:44.715Z,6.73
2019-05-07T01:25:15.141Z,6.70
2019-05-07T01:27:46.832Z,6.76
2019-05-07T01:30:17.305Z,6.66
2019-05-07T01:32:54.345Z,6.71
2019-05-07T01:35:44.124Z,6.71
2019-05-07T01:38:17.159Z,6.65
2019-05-07T01:40:47.584Z,6.73
2019-05-07T01:43:18.451Z,6.65
2019-05-07T01:45:50.107Z,6.59
2019-05-07T01:48:22.974Z,6.57
2019-05-07T01:50:54.372Z,6.47
2019-05-07T01:53:24.806Z,6.45
2019-05-07T01:55:56.565Z,6.35
2019-05-07T01:58:27.296Z,6.34
2019-05-07T02:00:58.169Z,6.27
2019-05-07T02:03:46.621Z,6.24
2019-05-07T02:06:40.153Z,6.20
2019-05-07T02:09:23.372Z,6.09
2019-05-07T02:12:13.296Z,5.99
2019-05-07T02:14:44.259Z,6.01
2019-05-07T02:17:15.113Z,5.97
2019-05-07T02:19:45.847Z,5.95
2019-05-07T02:22:16.356Z,5.90
2019-05-07T02:24:47.154Z,5.86
2019-05-07T02:27:17.580Z,5.90
2019-05-07T02:29:48.060Z,6.07
2019-05-07T02:32:18.489Z,6.16
2019-05-07T02:34:49.557Z,6.09
2019-05-07T02:37:27.416Z,5.96
2019-05-07T02:40:16.270Z,5.90
2019-05-07T02:42:46.754Z,6.03
2019-05-07T02:45:36.170Z,5.97
2019-05-07T02:48:07.194Z,6.01
2019-05-07T02:50:44.273Z,6.06
2019-05-07T02:53:24.081Z,6.03
2019-05-07T02:55:56.204Z,6.11
2019-05-07T02:58:26.626Z,5.98
2019-05-07T03:00:57.102Z,5.81
2019-05-07T03:03:27.526Z,5.76
2019-05-07T03:05:57.966Z,5.82
2019-05-07T03:08:28.428Z,5.88
2019-05-07T03:10:58.858Z,5.71
2019-05-07T03:13:29.701Z,5.68
2019-05-07T03:16:03.527Z,5.64
2019-05-07T03:18:33.502Z,5.74
2019-05-07T03:21:13.350Z,5.71
2019-05-07T03:24:05.878Z,5.61
2019-05-07T03:26:43.417Z,5.55
2019-05-07T03:29:18.082Z,5.58
2019-05-07T03:31:58.465Z,5.47
2019-05-07T03:34:37.159Z,5.55
2019-05-07T03:37:09.564Z,5.59
2019-05-07T03:39:42.956Z,5.50
2019-05-07T03:42:13.294Z,5.24
2019-05-07T03:45:03.860Z,5.23
2019-05-07T03:47:37.960Z,5.17
2019-05-07T03:50:14.249Z,5.27
2019-05-07T03:52:43.097Z,5.30
2019-05-07T03:55:14.963Z,5.35
2019-05-07T03:57:45.902Z,5.30
2019-05-07T04:00:17.219Z,5.32
2019-05-07T04:02:48.015Z,5.32
2019-05-07T04:05:18.491Z,5.35
2019-05-07T04:07:50.240Z,5.37
2019-05-07T04:10:23.149Z,5.31
2019-05-07T04:12:53.938Z,5.34
2019-05-07T04:15:24.375Z,5.35
2019-05-07T04:17:55.796Z,5.36
2019-05-07T04:20:26.660Z,5.28
2019-05-07T04:22:57.177Z,5.25
2019-05-07T04:25:34.910Z,5.22
2019-05-07T04:28:33.548Z,5.14
2019-05-07T04:31:03.697Z,5.06
2019-05-07T04:33:43.659Z,5.12
2019-05-07T04:36:25.516Z,5.18
2019-05-07T04:38:55.960Z,5.27
2019-05-07T04:41:26.404Z,5.25
2019-05-07T04:43:56.913Z,5.29
2019-05-07T04:46:27.738Z,5.30
2019-05-07T04:48:58.575Z,5.38
2019-05-07T04:51:48.382Z,5.39
2019-05-07T04:54:18.829Z,5.43
2019-05-07T04:56:53.000Z,5.54
2019-05-07T04:59:23.695Z,5.61
2019-05-07T05:02:03.874Z,5.73
2019-05-07T05:04:34.953Z,5.78
2019-05-07T05:07:05.829Z,5.87
2019-05-07T05:09:36.541Z,6.02
2019-05-07T05:12:07.988Z,6.08
2019-05-07T05:14:38.437Z,6.20
2019-05-07T05:17:08.875Z,6.24
2019-05-07T05:19:39.428Z,6.27
2019-05-07T05:22:24.982Z,6.35
2019-05-07T05:25:27.586Z,6.50
2019-05-07T05:27:58.830Z,6.57
2019-05-07T05:30:42.607Z,6.68
2019-05-07T05:33:13.134Z,6.78
2019-05-07T05:35:43.578Z,6.90
2019-05-07T05:38:14.072Z,6.93
2019-05-07T05:40:44.898Z,7.02
2019-05-07T05:43:26.095Z,7.00
2019-05-07T05:45:58.354Z,7.10
2019-05-07T05:48:29.185Z,7.18
2019-05-07T05:51:12.726Z,7.35
2019-05-07T05:53:52.430Z,7.52
2019-05-07T05:56:34.875Z,7.53
2019-05-07T05:59:23.704Z,7.49
2019-05-07T06:02:06.748Z,7.66
2019-05-07T06:04:48.172Z,7.69
2019-05-07T06:07:47.325Z,7.77
2019-05-07T06:10:52.411Z,7.84
2019-05-07T06:13:29.138Z,7.81
2019-05-07T06:16:07.722Z,7.98
2019-05-07T06:18:55.733Z,7.85
2019-05-07T06:21:48.112Z,8.11
2019-05-07T06:24:22.906Z,8.33
2019-05-07T06:26:53.343Z,8.40
2019-05-07T06:29:23.797Z,8.52
2019-05-07T06:32:03.456Z,8.56
2019-05-07T06:34:34.310Z,8.74
2019-05-07T06:37:05.100Z,8.78
2019-05-07T06:39:45.764Z,8.96
2019-05-07T06:42:46.618Z,9.16
2019-05-07T06:45:23.913Z,9.21
2019-05-07T06:47:54.676Z,9.41
2019-05-07T06:50:25.413Z,9.45
2019-05-07T06:52:55.901Z,9.41
2019-05-07T06:55:26.681Z,9.15
2019-05-07T06:57:57.113Z,9.00
2019-05-07T07:00:46.368Z,9.26
2019-05-07T07:03:32.831Z,9.57
2019-05-07T07:06:32.181Z,9.68
2019-05-07T07:09:22.473Z,9.69
2019-05-07T07:11:57.534Z,9.47
2019-05-07T07:14:27.966Z,9.21
2019-05-07T07:16:58.741Z,9.10
2019-05-07T07:19:29.230Z,9.25
2019-05-07T07:21:59.667Z,9.47
2019-05-07T07:24:32.799Z,9.61
2019-05-07T07:27:03.062Z,9.83
2019-05-07T07:29:35.191Z,9.86
2019-05-07T07:32:06.676Z,9.91
2019-05-07T07:34:43.569Z,9.75
2019-05-07T07:37:36.378Z,9.70
2019-05-07T07:40:29.214Z,9.88
2019-05-07T07:42:59.644Z,10.20
2019-05-07T07:45:32.254Z,10.46
2019-05-07T07:48:02.466Z,10.38
2019-05-07T07:50:33.230Z,10.35
2019-05-07T07:53:03.732Z,10.36
2019-05-07T07:55:42.692Z,10.53
2019-05-07T07:58:32.184Z,10.76
2019-05-07T08:01:12.229Z,10.80
2019-05-07T08:03:42.799Z,10.86
2019-05-07T08:06:13.660Z,10.79
2019-05-07T08:08:45.028Z,11.10
2019-05-07T08:11:15.457Z,11.34
2019-05-07T08:13:46.562Z,11.63
2019-05-07T08:16:17.406Z,11.89
2019-05-07T08:18:48.261Z,11.68
2019-05-07T08:21:18.689Z,11.29
2019-05-07T08:23:49.589Z,11.19
2019-05-07T08:26:21.907Z,11.14
2019-05-07T08:28:52.457Z,11.02
2019-05-07T08:31:37.865Z,11.19
2019-05-07T08:34:23.098Z,11.09
2019-05-07T08:36:53.597Z,10.97
2019-05-07T08:39:25.212Z,11.05
2019-05-07T08:41:56.160Z,11.25
2019-05-07T08:44:32.548Z,11.53
2019-05-07T08:47:15.377Z,11.47
2019-05-07T08:49:46.176Z,11.38
2019-05-07T08:52:16.774Z,11.40
2019-05-07T08:54:47.653Z,11.66
2019-05-07T08:57:18.186Z,11.68
2019-05-07T08:59:58.488Z,11.56
2019-05-07T09:02:22.240Z,11.55
2019-05-07T09:04:52.900Z,11.36
2019-05-07T09:07:23.333Z,11.48
2019-05-07T09:09:53.823Z,11.65
2019-05-07T09:12:24.248Z,11.85
2019-05-07T09:14:54.683Z,11.95
2019-05-07T09:17:25.549Z,12.14
2019-05-07T09:19:55.981Z,12.34
2019-05-07T09:22:27.189Z,12.56
2019-05-07T09:24:57.764Z,12.81
2019-05-07T09:27:37.070Z,12.97
2019-05-07T09:30:42.031Z,13.20
2019-05-07T09:33:37.294Z,13.37
2019-05-07T09:36:12.418Z,13.61
2019-05-07T09:38:55.237Z,13.39
2019-05-07T09:41:27.386Z,12.63
2019-05-07T09:43:59.059Z,11.95
2019-05-07T09:46:29.923Z,11.92
2019-05-07T09:49:02.931Z,12.17
2019-05-07T09:51:32.537Z,12.40
2019-05-07T09:54:03.359Z,12.70
2019-05-07T09:56:34.040Z,13.00
2019-05-07T09:59:04.576Z,13.10
2019-05-07T10:01:35.325Z,12.90
2019-05-07T10:04:06.020Z,12.69
2019-05-07T10:06:36.454Z,12.65
2019-05-07T10:09:07.685Z,12.36
2019-05-07T10:11:47.822Z,12.38
2019-05-07T10:14:18.356Z,12.76
2019-05-07T10:17:16.909Z,13.03
2019-05-07T10:19:47.817Z,13.15
2019-05-07T10:22:18.257Z,13.28
2019-05-07T10:24:48.737Z,13.10
2019-05-07T10:27:19.209Z,12.71
2019-05-07T10:29:49.843Z,12.60
2019-05-07T10:32:20.333Z,12.36
2019-05-07T10:34:52.498Z,12.35
2019-05-07T10:37:23.029Z,12.44
2019-05-07T10:39:54.346Z,12.55
2019-05-07T10:42:25.045Z,12.66
2019-05-07T10:45:21.920Z,12.82
2019-05-07T10:48:23.254Z,12.88
2019-05-07T10:50:55.460Z,13.04
2019-05-07T10:53:26.218Z,12.97
2019-05-07T10:55:56.650Z,12.95
2019-05-07T10:58:27.524Z,12.95
2019-05-07T11:00:58.367Z,13.14
2019-05-07T11:03:29.269Z,13.46
2019-05-07T11:05:59.854Z,13.48
2019-05-07T11:08:32.729Z,13.56
2019-05-07T11:11:03.131Z,13.53
2019-05-07T11:13:33.669Z,13.66
2019-05-07T11:16:11.796Z,14.07
2019-05-07T11:18:45.374Z,14.24
2019-05-07T11:21:16.229Z,14.37
2019-05-07T11:23:46.965Z,14.42
2019-05-07T11:26:17.448Z,14.04
2019-05-07T11:28:47.890Z,13.97
2019-05-07T11:31:18.331Z,13.87
2019-05-07T11:33:48.839Z,14.12
2019-05-07T11:36:19.326Z,14.64
2019-05-07T11:38:49.757Z,14.88
2019-05-07T11:41:27.886Z,15.03
2019-05-07T11:44:23.044Z,15.01
2019-05-07T11:47:22.531Z,15.20
2019-05-07T11:50:11.998Z,15.26
2019-05-07T11:52:46.873Z,15.64
2019-05-07T11:55:17.317Z,16.06
2019-05-07T11:57:47.759Z,16.16
2019-05-07T12:00:26.743Z,15.95
2019-05-07T12:02:57.564Z,15.46
2019-05-07T12:05:28.003Z,15.44
2019-05-07T12:07:58.865Z,15.08
2019-05-07T12:10:29.297Z,14.81
2019-05-07T12:13:02.179Z,14.64
2019-05-07T12:15:32.593Z,14.55
2019-05-07T12:18:03.308Z,14.52
2019-05-07T12:20:34.053Z,14.36
2019-05-07T12:23:04.542Z,14.19
2019-05-07T12:25:34.978Z,14.11
2019-05-07T12:28:05.843Z,13.98
2019-05-07T12:30:54.492Z,13.98
2019-05-07T12:33:56.210Z,14.09
2019-05-07T12:36:26.994Z,14.61
2019-05-07T12:38:57.814Z,15.42
2019-05-07T12:41:33.645Z,15.64
2019-05-07T12:44:07.319Z,15.93
2019-05-07T12:46:38.300Z,16.02
2019-05-07T12:49:08.736Z,16.31
2019-05-07T12:52:03.076Z,16.35
2019-05-07T12:54:42.192Z,16.51
2019-05-07T12:57:13.035Z,16.04
2019-05-07T12:59:43.469Z,16.38
2019-05-07T13:02:42.059Z,16.14
2019-05-07T13:05:11.879Z,15.88
2019-05-07T13:07:53.698Z,16.09
2019-05-07T13:10:24.307Z,16.16
2019-05-07T13:12:54.738Z,15.98
2019-05-07T13:15:28.048Z,16.02
2019-05-07T13:17:58.390Z,15.98
2019-05-07T13:20:28.833Z,15.54
2019-05-07T13:22:59.313Z,15.30
2019-05-07T13:25:29.743Z,14.91
2019-05-07T13:28:02.475Z,15.40
2019-05-07T13:30:32.540Z,15.50
2019-05-07T13:33:06.127Z,15.33
2019-05-07T13:35:37.061Z,15.37
2019-05-07T13:38:25.967Z,15.42
2019-05-07T13:41:27.459Z,15.25
2019-05-07T13:44:15.799Z,15.30
2019-05-07T13:46:47.678Z,15.62
2019-05-07T13:49:21.825Z,15.47
2019-05-07T13:52:03.259Z,15.10
2019-05-07T13:54:24.200Z,15.01
2019-05-07T13:56:54.626Z,14.84
2019-05-07T13:59:25.294Z,14.85
2019-05-07T14:02:04.997Z,15.42
2019-05-07T14:04:35.952Z,15.15
2019-05-07T14:07:06.683Z,15.35
2019-05-07T14:09:37.119Z,15.69
2019-05-07T14:12:08.072Z,15.66
2019-05-07T14:14:38.805Z,15.53
2019-05-07T14:17:09.544Z,15.16
2019-05-07T14:19:42.264Z,15.10
2019-05-07T14:22:18.341Z,15.42
2019-05-07T14:24:44.981Z,15.74
2019-05-07T14:27:15.547Z,16.01
2019-05-07T14:29:46.256Z,15.67
2019-05-07T14:32:31.797Z,15.54
2019-05-07T14:35:26.766Z,15.11
2019-05-07T14:38:04.632Z,14.87
2019-05-07T14:40:35.500Z,14.86
2019-05-07T14:43:12.604Z,14.81
2019-05-07T14:45:43.069Z,14.70
2019-05-07T14:48:13.982Z,14.71
2019-05-07T14:50:44.871Z,14.58
2019-05-07T14:53:15.762Z,14.56
2019-05-07T14:55:46.193Z,14.61
2019-05-07T14:58:17.155Z,14.72
2019-05-07T15:00:48.637Z,14.75
2019-05-07T15:03:20.323Z,14.84
2019-05-07T15:05:52.577Z,14.93
2019-05-07T15:08:23.304Z,14.86
2019-05-07T15:10:53.738Z,14.71
2019-05-07T15:13:24.235Z,14.77
2019-05-07T15:15:55.615Z,14.60
2019-05-07T15:18:48.053Z,14.36
2019-05-07T15:21:18.745Z,14.50
2019-05-07T15:23:49.904Z,14.42
2019-05-07T15:26:22.026Z,14.33
2019-05-07T15:29:07.121Z,14.44
2019-05-07T15:31:55.444Z,14.44
2019-05-07T15:34:26.464Z,14.38
2019-05-07T15:36:56.898Z,14.32
2019-05-07T15:39:27.836Z,14.23
2019-05-07T15:41:58.574Z,14.07
2019-05-07T15:44:29.453Z,13.96
2019-05-07T15:47:02.656Z,14.07
2019-05-07T15:49:33.084Z,14.22
2019-05-07T15:52:06.520Z,14.29
2019-05-07T15:54:37.288Z,14.36
2019-05-07T15:57:09.807Z,13.99
2019-05-07T15:59:41.776Z,13.96
2019-05-07T16:02:27.231Z,13.83
2019-05-07T16:04:58.027Z,13.57
2019-05-07T16:07:28.454Z,13.52
2019-05-07T16:09:59.297Z,13.35
2019-05-07T16:12:31.828Z,13.27
2019-05-07T16:15:03.156Z,13.32
2019-05-07T16:17:38.468Z,13.37
2019-05-07T16:20:12.062Z,13.26
2019-05-07T16:22:45.381Z,12.97
2019-05-07T16:25:16.200Z,12.81
2019-05-07T16:27:47.140Z,12.73
2019-05-07T16:30:17.733Z,12.77
2019-05-07T16:32:48.535Z,12.81
2019-05-07T16:35:19.361Z,12.89
2019-05-07T16:37:52.223Z,13.04
2019-05-07T16:40:23.082Z,13.03
2019-05-07T16:42:53.918Z,12.82
2019-05-07T16:45:24.527Z,12.84
2019-05-07T16:47:54.968Z,12.84
2019-05-07T16:50:25.399Z,12.78
2019-05-07T16:52:55.915Z,12.71
2019-05-07T16:55:36.823Z,12.72
2019-05-07T16:58:15.353Z,12.84
2019-05-07T17:00:47.931Z,12.80
2019-05-07T17:03:23.494Z,12.89
2019-05-07T17:05:53.921Z,12.88
2019-05-07T17:08:58.573Z,12.87
2019-05-07T17:11:29.016Z,12.89
2019-05-07T17:13:59.451Z,12.86
2019-05-07T17:16:31.703Z,12.79
2019-05-07T17:19:02.716Z,12.62
2019-05-07T17:21:33.592Z,12.57
2019-05-07T17:24:04.956Z,12.58
2019-05-07T17:26:35.391Z,12.52
2019-05-07T17:29:06.949Z,12.42
2019-05-07T17:31:37.371Z,12.39
2019-05-07T17:34:07.801Z,12.36
2019-05-07T17:36:38.310Z,12.29
2019-05-07T17:39:11.978Z,12.29
2019-05-07T17:41:43.096Z,12.28
2019-05-07T17:44:13.772Z,12.22
2019-05-07T17:46:46.159Z,12.24
2019-05-07T17:49:17.080Z,12.23
2019-05-07T17:51:47.566Z,12.18
2019-05-07T17:54:18.025Z,12.07
2019-05-07T17:56:48.466Z,12.06
2019-05-07T17:59:19.936Z,11.96
2019-05-07T18:02:09.913Z,11.83
2019-05-07T18:04:51.046Z,11.85
2019-05-07T18:07:14.879Z,11.73
2019-05-07T18:09:49.967Z,11.85
2019-05-07T18:12:22.520Z,11.84
2019-05-07T18:14:53.132Z,11.87
2019-05-07T18:17:51.661Z,11.89
2019-05-07T18:20:22.283Z,11.75
2019-05-07T18:22:53.105Z,11.65
2019-05-07T18:25:23.937Z,11.68
2019-05-07T18:27:56.481Z,11.54
2019-05-07T18:30:29.656Z,11.56
2019-05-07T18:33:22.129Z,11.44
2019-05-07T18:35:52.755Z,11.35
2019-05-07T18:38:23.547Z,11.26
2019-05-07T18:40:53.988Z,11.37
2019-05-07T18:43:24.882Z,11.25
2019-05-07T18:46:06.173Z,11.19
2019-05-07T18:48:37.187Z,11.28
2019-05-07T18:51:07.938Z,11.17
2019-05-07T18:53:38.372Z,11.11
2019-05-07T18:56:09.703Z,11.31
2019-05-07T18:58:42.451Z,11.45
2019-05-07T19:01:15.987Z,11.49
2019-05-07T19:03:46.946Z,11.52
2019-05-07T19:06:17.398Z,11.60
2019-05-07T19:08:50.115Z,11.56
2019-05-07T19:11:22.884Z,11.45
2019-05-07T19:13:56.015Z,11.42
2019-05-07T19:16:25.935Z,11.46
2019-05-07T19:18:56.790Z,11.35
2019-05-07T19:21:29.210Z,11.34
2019-05-07T19:23:59.703Z,11.25
2019-05-07T19:26:30.535Z,11.22
2019-05-07T19:29:02.552Z,11.18
2019-05-07T19:31:33.105Z,11.14
2019-05-07T19:34:03.564Z,11.11
2019-05-07T19:36:34.327Z,11.15
2019-05-07T19:39:07.561Z,11.04
2019-05-07T19:41:38.039Z,10.98
2019-05-07T19:44:09.198Z,10.86
2019-05-07T19:46:40.288Z,10.80
2019-05-07T19:49:10.726Z,10.78
2019-05-07T19:51:42.829Z,10.76
2019-05-07T19:54:13.392Z,10.56
2019-05-07T19:56:44.472Z,10.59
2019-05-07T19:59:15.641Z,10.59
2019-05-07T20:01:51.436Z,10.55
2019-05-07T20:04:21.938Z,10.47
2019-05-07T20:06:52.387Z,10.54
2019-05-07T20:09:27.034Z,10.54
2019-05-07T20:11:57.449Z,10.56
2019-05-07T20:14:29.612Z,10.55
2019-05-07T20:17:00.177Z,10.46
2019-05-07T20:19:32.662Z,10.48
2019-05-07T20:22:03.320Z,10.52
2019-05-07T20:24:33.828Z,10.41
2019-05-07T20:27:04.276Z,10.41
2019-05-07T20:29:37.318Z,10.34
2019-05-07T20:32:08.150Z,10.35
2019-05-07T20:34:38.650Z,10.37
2019-05-07T20:37:09.342Z,10.37
2019-05-07T20:39:39.846Z,10.35
2019-05-07T20:42:12.355Z,10.31
2019-05-07T20:44:43.183Z,10.32
2019-05-07T20:47:14.029Z,10.30
2019-05-07T20:49:44.458Z,10.30
2019-05-07T20:52:16.048Z,10.19
2019-05-07T20:55:07.601Z,10.14
2019-05-07T20:57:42.652Z,10.18
2019-05-07T21:00:26.908Z,10.11
2019-05-07T21:03:15.523Z,10.06
2019-05-07T21:05:45.996Z,10.02
2019-05-07T21:08:16.422Z,9.99
2019-05-07T21:10:46.856Z,9.97
2019-05-07T21:13:30.042Z,9.99
2019-05-07T21:15:49.831Z,9.89
2019-05-07T21:18:22.950Z,9.88
2019-05-07T21:20:53.281Z,9.85
2019-05-07T21:23:23.699Z,9.80
2019-05-07T21:25:54.115Z,9.75
2019-05-07T21:28:24.782Z,9.69
2019-05-07T21:30:55.271Z,9.64
2019-05-07T21:33:26.067Z,9.54
2019-05-07T21:35:56.908Z,9.51
2019-05-07T21:38:28.053Z,9.52
2019-05-07T21:40:58.803Z,9.43
2019-05-07T21:43:29.631Z,9.40
2019-05-07T21:46:02.295Z,9.42
2019-05-07T21:48:32.887Z,9.36
2019-05-07T21:51:03.469Z,9.39
2019-05-07T21:53:53.744Z,9.38
2019-05-07T21:56:49.464Z,9.39
2019-05-07T21:59:22.163Z,9.41
2019-05-07T22:01:56.437Z,9.40
2019-05-07T22:04:27.435Z,9.29
2019-05-07T22:06:57.864Z,9.26
2019-05-07T22:09:28.357Z,9.17
2019-05-07T22:11:59.104Z,9.09
2019-05-07T22:14:32.833Z,9.10
2019-05-07T22:17:03.406Z,9.08
2019-05-07T22:19:33.936Z,9.05
2019-05-07T22:22:04.339Z,8.99
2019-05-07T22:24:35.450Z,8.95
2019-05-07T22:27:06.293Z,8.88
2019-05-07T22:29:36.764Z,8.84
2019-05-07T22:32:32.312Z,8.69
2019-05-07T22:35:12.048Z,8.62
2019-05-07T22:37:42.561Z,8.54
2019-05-07T22:40:13.112Z,8.48
2019-05-07T22:42:43.604Z,8.44
2019-05-07T22:45:14.705Z,8.35
2019-05-07T22:47:45.131Z,8.30
2019-05-07T22:50:15.576Z,8.28
2019-05-07T22:52:46.077Z,8.30
2019-05-07T22:55:16.498Z,8.32
2019-05-07T22:58:04.094Z,8.27
2019-05-07T23:00:48.245Z,8.26
2019-05-07T23:03:19.024Z,8.27
2019-05-07T23:05:52.229Z,8.29
2019-05-07T23:08:22.279Z,8.25
2019-05-07T23:10:53.153Z,8.12
2019-05-07T23:13:23.572Z,8.20
2019-05-07T23:15:54.494Z,8.22
2019-05-07T23:18:25.327Z,8.21
2019-05-07T23:20:56.127Z,8.19
2019-05-07T23:23:26.900Z,8.14
2019-05-07T23:25:57.702Z,8.10
2019-05-07T23:28:28.128Z,8.11
2019-05-07T23:30:58.867Z,8.08
2019-05-07T23:33:29.412Z,8.06
2019-05-07T23:36:02.158Z,7.97
2019-05-07T23:38:32.254Z,7.93
2019-05-07T23:41:22.307Z,7.70
2019-05-07T23:44:12.470Z,7.76
2019-05-07T23:46:44.885Z,7.61
2019-05-07T23:49:15.785Z,7.71
2019-05-07T23:51:46.497Z,7.42
2019-05-07T23:54:17.288Z,7.47
2019-05-07T23:57:01.807Z,7.44
2019-05-07T23:59:22.172Z,7.46
